< Typhoon 198309 1983 Season Typhoon 198311 >
Typhoon 198310 (FORREST)
General InformationTrack Information on Google MapsDetailed Wind InformationList of All Images || NewsDisaster Info.ResourceGoogle EarthGE AnimationAtom FeedGeoJSON
Detalied Best Track (Time Zone = UTC)
Year Month Day Hour Lat. Long. Pressure (hPa) Wind (kt) Class Image Chart
1983 9 19 00 7.0 151.0 1006 0 2 Image Chart
1983 9 19 06 7.8 149.5 1004 0 2 Image Chart
1983 9 19 12 8.5 148.0 1004 0 2 Image Chart
1983 9 19 18 9.3 146.6 1004 0 2 Image Chart
1983 9 20 00 10.0 145.5 1002 0 2 Image Chart
1983 9 20 06 10.5 144.6 1000 0 2 Image Chart
1983 9 20 12 11.0 143.7 998 35 3 Image Chart
1983 9 20 18 11.5 142.8 996 35 3 Image Chart
1983 9 21 00 12.1 141.9 994 55 4 Image Chart
1983 9 21 06 12.7 140.9 990 60 4 Image Chart
1983 9 21 12 13.6 139.9 985 60 4 Image Chart
1983 9 21 18 14.4 138.9 980 65 5 Image Chart
1983 9 22 00 15.1 137.9 975 65 5 Image Chart
1983 9 22 06 16.2 137.0 950 75 5 Image Chart
1983 9 22 12 17.2 136.0 925 100 5 Image Chart
1983 9 22 18 18.0 134.7 890 110 5 Image Chart
1983 9 23 00 18.6 133.5 885 110 5 Image Chart
1983 9 23 06 19.0 132.7 885 110 5 Image Chart
1983 9 23 12 19.5 131.9 900 110 5 Image Chart
1983 9 23 18 20.1 131.0 900 110 5 Image Chart
1983 9 24 00 20.8 130.3 910 110 5 Image Chart
1983 9 24 06 21.6 129.5 915 110 5 Image Chart
1983 9 24 12 22.4 128.6 920 100 5 Image Chart
1983 9 24 18 23.0 128.0 920 100 5 Image Chart
1983 9 25 00 23.7 127.4 920 100 5 Image Chart
1983 9 25 06 24.4 126.8 920 100 5 Image Chart
1983 9 25 12 25.1 126.4 920 110 5 Image Chart
1983 9 25 18 25.7 125.8 920 100 5 Image Chart
1983 9 26 00 26.8 125.1 925 100 5 Image Chart
1983 9 26 06 27.4 124.5 925 100 5 Image Chart
1983 9 26 12 28.1 124.0 925 100 5 Image Chart
1983 9 26 18 28.9 123.9 930 100 5 Image Chart
1983 9 27 00 29.7 124.0 935 90 5 Image Chart
1983 9 27 06 30.5 124.7 940 85 5 Image Chart
1983 9 27 12 31.2 125.7 945 85 5 Image Chart
1983 9 27 18 31.9 127.3 960 80 5 Image Chart
1983 9 28 00 32.6 129.3 975 60 4 Image Chart
1983 9 28 06 33.0 132.6 985 0 6 Image Chart
1983 9 28 12 33.5 137.0 990 0 6 Image Chart
1983 9 28 18 34.0 142.0 992 0 6 Image Chart
1983 9 29 00 35.0 146.0 990 0 6 Image Chart
1983 9 29 06 36.0 154.0 988 0 6 Image Chart
1983 9 29 12 37.0 160.0 984 0 6 Image Chart
1983 9 29 18 38.0 165.0 984 0 6 Image Chart
1983 9 30 00 40.0 171.0 972 0 6 Image Chart
1983 9 30 06 42.0 174.0 972 0 6 Image Chart
1983 9 30 12 44.0 177.0 972 0 6 Image Chart
1983 9 30 18 46.0 180.0 970 0 6 Image Chart
Japan Meteorological Agency Best Track Data | Correction Date : 1992-10-21
< Typhoon 198309 1983 Season Typhoon 198311 >

Help